createdAt,value
2023-05-02T00:00:09.133Z,10.05
2023-05-02T00:02:38.773Z,10.03
2023-05-02T00:05:07.652Z,9.85
2023-05-02T00:07:36.045Z,9.85
2023-05-02T00:10:06.224Z,9.76
2023-05-02T00:12:38.033Z,9.82
2023-05-02T00:15:06.977Z,9.65
2023-05-02T00:17:35.023Z,9.65
2023-05-02T00:20:05.020Z,9.67
2023-05-02T00:22:33.306Z,9.70
2023-05-02T00:25:01.282Z,9.69
2023-05-02T00:27:32.003Z,9.58
2023-05-02T00:30:01.011Z,9.50
2023-05-02T00:32:30.221Z,9.32
2023-05-02T00:34:59.028Z,9.26
2023-05-02T00:37:40.968Z,9.21
2023-05-02T00:40:22.324Z,9.15
2023-05-02T00:42:55.628Z,9.12
2023-05-02T00:45:23.696Z,9.08
2023-05-02T00:48:05.512Z,8.96
2023-05-02T00:50:44.521Z,9.10
2023-05-02T00:53:12.710Z,9.02
2023-05-02T00:55:41.985Z,9.04
2023-05-02T00:58:13.952Z,9.02
2023-05-02T01:00:57.820Z,9.04
2023-05-02T01:03:37.853Z,8.95
2023-05-02T01:06:25.428Z,8.96
2023-05-02T01:09:01.953Z,8.93
2023-05-02T01:11:40.874Z,8.92
2023-05-02T01:14:13.328Z,8.95
2023-05-02T01:16:44.789Z,8.90
2023-05-02T01:19:26.256Z,8.98
2023-05-02T01:21:56.315Z,8.94
2023-05-02T01:24:29.792Z,8.92
2023-05-02T01:27:08.697Z,8.77
2023-05-02T01:29:47.032Z,8.87
2023-05-02T01:32:17.555Z,8.79
2023-05-02T01:34:48.939Z,8.87
2023-05-02T01:37:19.197Z,8.85
2023-05-02T01:40:13.098Z,8.84
2023-05-02T01:42:42.626Z,8.82
2023-05-02T01:45:16.701Z,8.80
2023-05-02T01:47:46.183Z,8.95
2023-05-02T01:50:30.884Z,9.03
2023-05-02T01:53:11.603Z,8.83
2023-05-02T01:56:07.682Z,8.75
2023-05-02T01:58:50.352Z,8.81
2023-05-02T02:01:22.436Z,8.76
2023-05-02T02:04:03.136Z,8.71
2023-05-02T02:10:41.117Z,8.61
2023-05-02T02:13:33.071Z,8.44
2023-05-02T02:16:05.164Z,8.38
2023-05-02T02:19:04.725Z,8.46
2023-05-02T02:21:39.102Z,8.32
2023-05-02T02:24:47.957Z,8.09
2023-05-02T02:27:16.357Z,8.01
2023-05-02T02:32:46.227Z,8.05
2023-05-02T02:35:15.929Z,7.98
2023-05-02T02:37:51.172Z,7.92
2023-05-02T02:40:24.520Z,7.97
2023-05-02T02:43:01.591Z,7.86
2023-05-02T02:45:36.745Z,7.95
2023-05-02T02:48:18.267Z,7.77
2023-05-02T02:50:58.859Z,7.77
2023-05-02T02:53:35.328Z,7.74
2023-05-02T02:56:08.105Z,7.69
2023-05-02T02:58:56.479Z,7.64
2023-05-02T03:01:28.175Z,7.57
2023-05-02T03:03:58.558Z,7.47
2023-05-02T03:06:28.389Z,7.38
2023-05-02T03:08:56.524Z,7.35
2023-05-02T03:11:26.363Z,7.36
2023-05-02T03:13:55.631Z,7.33
2023-05-02T03:16:34.038Z,7.38
2023-05-02T03:19:02.992Z,7.19
2023-05-02T03:21:32.442Z,7.18
2023-05-02T03:24:01.130Z,7.17
2023-05-02T03:26:29.478Z,7.08
2023-05-02T03:28:58.134Z,7.11
2023-05-02T03:31:26.840Z,7.07
2023-05-02T03:33:55.033Z,7.08
2023-05-02T03:36:22.996Z,7.06
2023-05-02T03:38:52.492Z,7.01
2023-05-02T03:41:21.246Z,6.93
2023-05-02T03:43:49.320Z,6.90
2023-05-02T03:46:17.320Z,6.93
2023-05-02T03:48:46.535Z,6.72
2023-05-02T03:51:14.540Z,6.83
2023-05-02T03:53:42.584Z,6.81
2023-05-02T03:56:12.117Z,6.88
2023-05-02T03:58:40.179Z,6.87
2023-05-02T04:01:15.518Z,6.87
2023-05-02T04:03:43.586Z,6.97
2023-05-02T04:06:13.203Z,6.98
2023-05-02T04:08:41.485Z,6.88
2023-05-02T04:11:15.324Z,6.93
2023-05-02T04:13:43.335Z,6.99
2023-05-02T04:16:11.354Z,6.93
2023-05-02T04:18:39.163Z,6.93
2023-05-02T04:21:09.320Z,6.87
2023-05-02T04:23:37.799Z,6.88
2023-05-02T04:26:06.237Z,6.82
2023-05-02T04:28:36.564Z,6.80
2023-05-02T04:31:05.267Z,6.84
2023-05-02T04:33:33.156Z,6.86
2023-05-02T04:36:01.341Z,6.88
2023-05-02T04:38:29.420Z,6.82
2023-05-02T04:40:57.906Z,6.94
2023-05-02T04:43:26.073Z,6.95
2023-05-02T04:45:55.497Z,6.93
2023-05-02T04:48:23.593Z,6.90
2023-05-02T04:50:53.590Z,6.94
2023-05-02T04:53:23.554Z,6.94
2023-05-02T04:55:52.242Z,6.95
2023-05-02T04:58:21.328Z,6.98
2023-05-02T05:00:49.355Z,6.99
2023-05-02T05:03:19.768Z,6.96
2023-05-02T05:05:48.021Z,6.94
2023-05-02T05:08:18.105Z,7.06
2023-05-02T05:10:52.234Z,7.10
2023-05-02T05:13:25.862Z,7.13
2023-05-02T05:16:05.542Z,7.07
2023-05-02T05:18:40.432Z,6.98
2023-05-02T05:21:08.716Z,7.20
2023-05-02T05:23:53.163Z,7.09
2023-05-02T05:26:22.254Z,7.04
2023-05-02T05:28:50.691Z,7.03
2023-05-02T05:31:19.628Z,7.13
2023-05-02T05:33:48.963Z,7.15
2023-05-02T05:36:17.251Z,7.10
2023-05-02T05:38:45.349Z,7.08
2023-05-02T05:41:13.706Z,7.18
2023-05-02T05:43:41.696Z,7.17
2023-05-02T05:46:09.711Z,7.08
2023-05-02T05:48:38.932Z,7.20
2023-05-02T05:51:09.986Z,7.26
2023-05-02T05:53:40.779Z,7.28
2023-05-02T05:56:14.584Z,7.39
2023-05-02T05:58:44.250Z,7.39
2023-05-02T06:01:12.885Z,7.34
2023-05-02T06:03:42.692Z,7.30
2023-05-02T06:06:13.185Z,7.48
2023-05-02T06:08:41.427Z,7.30
2023-05-02T06:11:12.729Z,7.32
2023-05-02T06:13:40.718Z,7.39
2023-05-02T06:16:09.235Z,7.36
2023-05-02T06:18:38.179Z,7.60
2023-05-02T06:21:06.900Z,7.49
2023-05-02T06:23:40.218Z,7.45
2023-05-02T06:26:10.153Z,7.58
2023-05-02T06:28:41.103Z,7.40
2023-05-02T06:31:10.124Z,7.54
2023-05-02T06:33:42.618Z,7.76
2023-05-02T06:36:10.959Z,7.67
2023-05-02T06:38:42.930Z,7.71
2023-05-02T06:41:17.842Z,7.77
2023-05-02T06:43:46.331Z,7.66
2023-05-02T06:46:20.913Z,7.73
2023-05-02T06:48:53.105Z,7.74
2023-05-02T06:51:22.431Z,7.82
2023-05-02T06:53:52.038Z,8.13
2023-05-02T06:56:20.260Z,7.78
2023-05-02T06:58:48.503Z,7.91
2023-05-02T07:01:16.502Z,8.22
2023-05-02T07:03:45.513Z,8.15
2023-05-02T07:06:13.641Z,8.11
2023-05-02T07:08:41.797Z,8.27
2023-05-02T07:11:11.422Z,8.40
2023-05-02T07:13:39.453Z,8.65
2023-05-02T07:16:08.740Z,8.77
2023-05-02T07:18:36.826Z,8.56
2023-05-02T07:21:05.018Z,8.45
2023-05-02T07:23:33.178Z,8.25
2023-05-02T07:26:01.398Z,8.54
2023-05-02T07:28:30.990Z,8.50
2023-05-02T07:30:59.332Z,8.13
2023-05-02T07:33:27.301Z,8.18
2023-05-02T07:35:57.201Z,8.21
2023-05-02T07:38:25.406Z,8.42
2023-05-02T07:40:54.630Z,8.50
2023-05-02T07:43:22.894Z,8.65
2023-05-02T07:45:52.588Z,8.75
2023-05-02T07:48:20.634Z,8.84
2023-05-02T07:50:48.903Z,8.96
2023-05-02T07:53:19.303Z,9.09
2023-05-02T07:55:47.791Z,9.03
2023-05-02T07:58:16.746Z,9.23
2023-05-02T08:00:44.749Z,8.98
2023-05-02T08:03:14.143Z,8.51
2023-05-02T08:05:43.247Z,9.01
2023-05-02T08:08:11.272Z,8.85
2023-05-02T08:10:39.366Z,9.13
2023-05-02T08:13:07.517Z,8.81
2023-05-02T08:15:35.875Z,9.13
2023-05-02T08:18:07.247Z,9.06
2023-05-02T08:20:37.189Z,9.09
2023-05-02T08:23:11.550Z,9.36
2023-05-02T08:25:39.421Z,8.56
2023-05-02T08:28:08.335Z,9.22
2023-05-02T08:30:37.672Z,9.45
2023-05-02T08:33:05.793Z,8.99
2023-05-02T08:35:33.906Z,9.05
2023-05-02T08:38:03.809Z,9.01
2023-05-02T08:40:42.451Z,9.20
2023-05-02T08:43:12.423Z,9.09
2023-05-02T08:45:42.502Z,9.25
2023-05-02T08:48:11.813Z,9.19
2023-05-02T08:50:41.881Z,8.83
2023-05-02T08:53:15.500Z,9.48
2023-05-02T08:55:44.074Z,9.29
2023-05-02T08:58:18.820Z,9.95
2023-05-02T09:00:51.097Z,10.27
2023-05-02T09:03:33.565Z,9.77
2023-05-02T09:06:14.247Z,10.20
2023-05-02T09:08:44.826Z,10.49
2023-05-02T09:11:14.199Z,10.15
2023-05-02T09:13:43.981Z,10.35
2023-05-02T09:16:13.544Z,10.57
2023-05-02T09:18:43.639Z,10.10
2023-05-02T09:21:14.406Z,10.47
2023-05-02T09:23:45.640Z,10.04
2023-05-02T09:26:15.902Z,10.63
2023-05-02T09:28:45.499Z,10.38
2023-05-02T09:31:43.732Z,9.51
2023-05-02T09:34:16.839Z,9.58
2023-05-02T09:36:46.643Z,9.61
2023-05-02T09:39:17.493Z,10.10
2023-05-02T09:41:47.934Z,10.35
2023-05-02T09:44:18.464Z,10.82
2023-05-02T09:46:48.255Z,10.43
2023-05-02T09:49:46.886Z,10.60
2023-05-02T09:52:18.525Z,11.13
2023-05-02T10:03:56.046Z,11.01
2023-05-02T10:07:15.745Z,10.65
2023-05-02T10:09:46.987Z,11.16
2023-05-02T10:12:27.001Z,11.07
2023-05-02T10:15:07.654Z,11.04
2023-05-02T10:17:43.162Z,11.36
2023-05-02T10:20:16.581Z,11.67
2023-05-02T10:22:46.425Z,11.76
2023-05-02T10:25:16.439Z,12.50
2023-05-02T10:27:47.681Z,12.43
2023-05-02T10:30:16.911Z,13.61
2023-05-02T10:32:47.744Z,12.15
2023-05-02T10:35:19.277Z,11.15
2023-05-02T10:37:50.212Z,11.91
2023-05-02T10:40:20.440Z,12.54
2023-05-02T10:42:52.405Z,12.32
2023-05-02T10:45:38.757Z,12.88
2023-05-02T10:48:20.527Z,12.16
2023-05-02T10:50:51.417Z,12.08
2023-05-02T10:53:27.080Z,12.19
2023-05-02T10:56:17.767Z,11.62
2023-05-02T10:58:49.104Z,11.59
2023-05-02T11:01:40.399Z,11.32
2023-05-02T11:04:16.449Z,11.18
2023-05-02T11:07:19.218Z,10.87
2023-05-02T11:09:48.478Z,11.60
2023-05-02T11:12:49.100Z,11.51
2023-05-02T11:15:42.137Z,12.51
2023-05-02T11:18:12.582Z,13.61
2023-05-02T11:20:42.128Z,13.17
2023-05-02T11:23:26.130Z,12.16
2023-05-02T11:25:56.824Z,11.60
2023-05-02T11:28:48.729Z,11.21
2023-05-02T11:32:08.507Z,11.21
2023-05-02T11:34:46.270Z,11.49
2023-05-02T11:37:15.712Z,11.32
2023-05-02T11:39:44.393Z,11.20
2023-05-02T11:42:12.437Z,11.19
2023-05-02T11:45:04.226Z,11.17
2023-05-02T11:47:34.439Z,10.75
2023-05-02T11:50:06.384Z,10.79
2023-05-02T11:52:39.920Z,10.46
2023-05-02T11:55:10.382Z,10.71
2023-05-02T11:57:40.623Z,11.14
2023-05-02T12:00:13.056Z,11.40
2023-05-02T12:02:44.129Z,11.59
2023-05-02T12:05:14.202Z,11.58
2023-05-02T12:07:46.018Z,12.61
2023-05-02T12:10:15.024Z,12.55
2023-05-02T12:12:53.018Z,11.60
2023-05-02T12:15:22.401Z,11.90
2023-05-02T12:17:52.309Z,11.89
2023-05-02T12:20:20.663Z,11.90
2023-05-02T12:22:48.658Z,11.22
2023-05-02T12:25:19.145Z,11.70
2023-05-02T12:28:00.469Z,12.45
2023-05-02T12:30:31.682Z,12.27
2023-05-02T12:33:02.194Z,12.73
2023-05-02T12:35:34.020Z,13.42
2023-05-02T12:38:13.631Z,12.34
2023-05-02T12:40:51.158Z,12.59
2023-05-02T12:43:19.773Z,11.90
2023-05-02T12:45:54.310Z,11.95
2023-05-02T12:48:24.515Z,12.17
2023-05-02T12:50:54.522Z,12.06
2023-05-02T12:53:43.723Z,11.52
2023-05-02T12:56:13.531Z,10.86
2023-05-02T12:58:43.828Z,10.98
2023-05-02T13:01:13.828Z,11.50
2023-05-02T13:03:43.569Z,11.59
2023-05-02T13:06:12.251Z,11.86
2023-05-02T13:08:40.773Z,12.76
2023-05-02T13:11:09.930Z,13.04
2023-05-02T13:13:37.897Z,12.81
2023-05-02T13:16:06.343Z,13.39
2023-05-02T13:18:36.370Z,13.96
2023-05-02T13:21:05.009Z,13.08
2023-05-02T13:23:33.029Z,12.94
2023-05-02T13:26:03.089Z,13.67
2023-05-02T13:28:33.447Z,13.15
2023-05-02T13:31:01.606Z,13.15
2023-05-02T13:33:29.618Z,12.61
2023-05-02T13:35:59.176Z,12.42
2023-05-02T13:38:27.161Z,11.94
2023-05-02T13:40:55.268Z,12.13
2023-05-02T13:43:24.364Z,11.58
2023-05-02T13:45:52.849Z,13.15
2023-05-02T13:48:20.952Z,14.80
2023-05-02T13:50:49.140Z,12.94
2023-05-02T13:53:19.037Z,12.80
2023-05-02T13:55:47.649Z,11.94
2023-05-02T13:58:16.618Z,10.96
2023-05-02T14:00:44.761Z,11.02
2023-05-02T14:03:13.849Z,11.01
2023-05-02T14:05:43.760Z,11.03
2023-05-02T14:08:11.997Z,11.07
2023-05-02T14:10:41.756Z,11.11
2023-05-02T14:13:10.232Z,11.05
2023-05-02T14:15:39.008Z,12.29
2023-05-02T14:18:11.231Z,13.46
2023-05-02T14:20:39.389Z,12.58
2023-05-02T14:23:16.733Z,12.77
2023-05-02T14:25:52.044Z,12.96
2023-05-02T14:28:23.706Z,13.79
2023-05-02T14:30:52.387Z,14.52
2023-05-02T14:33:22.785Z,14.22
2023-05-02T14:35:57.044Z,13.04
2023-05-02T14:38:27.028Z,12.77
2023-05-02T14:40:58.250Z,12.13
2023-05-02T14:43:27.550Z,11.95
2023-05-02T14:45:57.528Z,11.93
2023-05-02T14:48:26.397Z,12.04
2023-05-02T14:50:54.846Z,11.92
2023-05-02T14:53:22.903Z,12.00
2023-05-02T14:55:52.957Z,12.35
2023-05-02T14:58:22.372Z,13.14
2023-05-02T15:00:50.717Z,12.86
2023-05-02T15:03:19.126Z,13.24
2023-05-02T15:05:47.373Z,12.54
2023-05-02T15:08:15.367Z,12.22
2023-05-02T15:10:43.454Z,11.58
2023-05-02T15:13:11.503Z,10.95
2023-05-02T15:15:43.583Z,11.20
2023-05-02T15:18:11.581Z,11.25
2023-05-02T15:20:40.315Z,11.24
2023-05-02T15:23:09.527Z,11.30
2023-05-02T15:25:37.527Z,10.76
2023-05-02T15:28:08.117Z,11.12
2023-05-02T15:30:36.508Z,11.15
2023-05-02T15:33:05.871Z,11.49
2023-05-02T15:35:34.922Z,11.64
2023-05-02T15:38:03.210Z,11.72
2023-05-02T15:40:31.269Z,11.42
2023-05-02T15:42:59.501Z,11.54
2023-05-02T15:45:27.609Z,10.96
2023-05-02T15:47:55.831Z,10.44
2023-05-02T15:50:25.650Z,10.31
2023-05-02T15:52:54.862Z,10.15
2023-05-02T15:55:22.756Z,10.15
2023-05-02T15:57:53.101Z,10.24
2023-05-02T16:00:21.614Z,9.80
2023-05-02T16:02:49.705Z,10.01
2023-05-02T16:05:18.085Z,9.88
2023-05-02T16:07:47.424Z,9.87
2023-05-02T16:10:16.719Z,9.87
2023-05-02T16:12:45.645Z,10.18
2023-05-02T16:15:17.235Z,9.96
2023-05-02T16:17:45.375Z,10.24
2023-05-02T16:20:14.656Z,10.33
2023-05-02T16:22:44.355Z,10.26
2023-05-02T16:25:15.289Z,10.01
2023-05-02T16:27:44.164Z,9.95
2023-05-02T16:30:12.746Z,10.11
2023-05-02T16:32:42.153Z,10.37
2023-05-02T16:35:15.074Z,10.70
2023-05-02T16:37:43.417Z,10.69
2023-05-02T16:40:13.898Z,10.94
2023-05-02T16:42:43.183Z,10.78
2023-05-02T16:45:14.850Z,10.85
2023-05-02T16:47:44.332Z,10.65
2023-05-02T16:50:12.678Z,10.83
2023-05-02T16:52:40.905Z,10.32
2023-05-02T16:55:10.254Z,10.28
2023-05-02T16:57:40.617Z,10.07
2023-05-02T17:00:12.446Z,10.05
2023-05-02T17:02:41.525Z,9.85
2023-05-02T17:05:13.074Z,9.72
2023-05-02T17:07:41.591Z,9.73
2023-05-02T17:10:14.010Z,9.80
2023-05-02T17:12:46.731Z,9.75
2023-05-02T17:15:15.127Z,9.77
2023-05-02T17:17:43.797Z,9.70
2023-05-02T17:20:19.918Z,9.61
2023-05-02T17:23:06.473Z,9.37
2023-05-02T17:25:34.720Z,9.40
2023-05-02T17:28:12.833Z,9.35
2023-05-02T17:30:45.279Z,9.23
2023-05-02T17:33:27.294Z,9.27
2023-05-02T17:35:56.454Z,9.23
2023-05-02T17:38:24.682Z,9.22
2023-05-02T17:40:52.758Z,9.21
2023-05-02T17:43:25.382Z,9.22
2023-05-02T17:45:54.468Z,9.03
2023-05-02T17:48:22.750Z,9.10
2023-05-02T17:50:52.162Z,9.02
2023-05-02T17:53:20.118Z,8.94
2023-05-02T17:55:51.681Z,8.83
2023-05-02T17:58:19.725Z,8.61
2023-05-02T18:00:54.241Z,8.43
2023-05-02T18:03:22.316Z,8.40
2023-05-02T18:05:50.462Z,8.16
2023-05-02T18:08:18.450Z,7.95
2023-05-02T18:10:47.795Z,7.87
2023-05-02T18:13:16.308Z,7.79
2023-05-02T18:15:44.419Z,7.73
2023-05-02T18:18:13.844Z,7.68
2023-05-02T18:20:42.358Z,7.67
2023-05-02T18:23:10.560Z,7.65
2023-05-02T18:25:38.653Z,7.61
2023-05-02T18:28:07.137Z,7.61
2023-05-02T18:30:37.871Z,7.54
2023-05-02T18:33:10.280Z,7.40
2023-05-02T18:35:41.707Z,7.20
2023-05-02T18:38:35.067Z,7.10
2023-05-02T18:41:24.711Z,6.92
2023-05-02T18:43:54.747Z,6.94
2023-05-02T18:46:27.277Z,6.76
2023-05-02T18:48:55.987Z,6.48
2023-05-02T18:51:43.342Z,6.60
2023-05-02T18:54:11.482Z,6.37
2023-05-02T18:56:46.925Z,6.32
2023-05-02T18:59:28.238Z,6.12
2023-05-02T19:02:01.234Z,5.93
2023-05-02T19:04:32.878Z,5.83
2023-05-02T19:07:03.380Z,5.84
2023-05-02T19:09:31.618Z,5.69
2023-05-02T19:12:01.257Z,5.40
2023-05-02T19:14:29.154Z,5.40
2023-05-02T19:16:58.142Z,5.39
2023-05-02T19:19:32.367Z,5.30
2023-05-02T19:22:03.185Z,5.26
2023-05-02T19:24:32.574Z,5.11
2023-05-02T19:27:04.130Z,4.91
2023-05-02T19:29:33.244Z,4.90
2023-05-02T19:32:01.905Z,4.94
2023-05-02T19:34:30.104Z,4.75
2023-05-02T19:36:58.073Z,4.58
2023-05-02T19:39:28.502Z,4.71
2023-05-02T19:41:56.594Z,4.63
2023-05-02T19:44:24.849Z,4.57
2023-05-02T19:46:52.973Z,4.46
2023-05-02T19:49:21.628Z,4.25
2023-05-02T19:51:49.470Z,4.14
2023-05-02T19:54:17.425Z,4.26
2023-05-02T19:56:48.946Z,3.84
2023-05-02T19:59:17.540Z,3.69
2023-05-02T20:01:46.759Z,3.60
2023-05-02T20:04:15.088Z,3.32
2023-05-02T20:06:46.421Z,3.24
2023-05-02T20:09:17.160Z,3.04
2023-05-02T20:11:48.505Z,2.85
2023-05-02T20:14:18.412Z,3.27
2023-05-02T20:16:49.986Z,3.09
2023-05-02T20:19:24.119Z,3.02
2023-05-02T20:21:52.524Z,2.90
2023-05-02T20:24:22.874Z,3.25
2023-05-02T20:26:53.002Z,3.21
2023-05-02T20:29:25.845Z,3.00
2023-05-02T20:31:55.163Z,3.01
2023-05-02T20:34:27.075Z,3.00
2023-05-02T20:36:55.629Z,2.79
2023-05-02T20:39:25.894Z,2.61
2023-05-02T20:41:58.329Z,2.98
2023-05-02T20:44:27.038Z,2.94
2023-05-02T20:46:55.097Z,3.19
2023-05-02T20:49:23.064Z,3.67
2023-05-02T20:51:56.057Z,3.82
2023-05-02T20:54:24.013Z,3.93
2023-05-02T20:57:00.058Z,4.04
2023-05-02T20:59:29.386Z,4.09
2023-05-02T21:01:57.495Z,3.89
2023-05-02T21:04:25.655Z,4.11
2023-05-02T21:06:59.854Z,4.17
2023-05-02T21:09:38.559Z,4.18
2023-05-02T21:12:12.802Z,4.21
2023-05-02T21:14:43.412Z,4.20
2023-05-02T21:17:13.602Z,4.17
2023-05-02T21:19:44.243Z,4.17
2023-05-02T21:22:12.217Z,4.13
2023-05-02T21:24:40.279Z,3.80
2023-05-02T21:27:08.471Z,3.92
2023-05-02T21:29:36.682Z,3.99
2023-05-02T21:32:06.835Z,4.37
2023-05-02T21:34:36.928Z,4.35
2023-05-02T21:37:05.186Z,4.22
2023-05-02T21:39:36.082Z,4.52
2023-05-02T21:42:04.872Z,4.78
2023-05-02T21:44:32.856Z,4.61
2023-05-02T21:47:10.291Z,4.56
2023-05-02T21:49:38.415Z,4.76
2023-05-02T21:52:07.715Z,4.90
2023-05-02T21:54:35.726Z,4.73
2023-05-02T22:00:25.695Z,4.81
2023-05-02T22:02:55.170Z,4.66
2023-05-02T22:05:24.529Z,4.41
2023-05-02T22:07:53.088Z,4.48
2023-05-02T22:10:21.412Z,4.56
2023-05-02T22:12:49.591Z,4.42
2023-05-02T22:15:17.703Z,4.32
2023-05-02T22:17:46.827Z,4.33
2023-05-02T22:20:16.387Z,4.38
2023-05-02T22:22:47.707Z,4.28
2023-05-02T22:25:16.735Z,4.14
2023-05-02T22:27:47.809Z,4.17
2023-05-02T22:30:15.869Z,3.88
2023-05-02T22:32:45.342Z,3.72
2023-05-02T22:35:13.330Z,3.20
2023-05-02T22:37:42.736Z,3.31
2023-05-02T22:40:12.684Z,3.31
2023-05-02T22:42:40.616Z,3.11
2023-05-02T22:45:10.193Z,3.07
2023-05-02T22:47:38.756Z,3.20
2023-05-02T22:50:10.111Z,3.35
2023-05-02T22:52:39.813Z,2.90
2023-05-02T22:55:22.010Z,2.87
2023-05-02T22:57:49.897Z,2.86
2023-05-02T23:00:18.328Z,3.08
2023-05-02T23:02:46.402Z,3.23
2023-05-02T23:05:14.985Z,3.34
2023-05-02T23:07:43.145Z,3.36
2023-05-02T23:10:12.734Z,3.44
2023-05-02T23:12:41.948Z,3.77
2023-05-02T23:15:11.126Z,3.97
2023-05-02T23:17:41.064Z,4.06
2023-05-02T23:20:14.615Z,4.09
2023-05-02T23:22:46.382Z,4.25
2023-05-02T23:25:16.640Z,4.41
2023-05-02T23:27:45.672Z,4.43
2023-05-02T23:30:14.017Z,4.40
2023-05-02T23:32:42.018Z,4.42
2023-05-02T23:35:15.603Z,4.47
2023-05-02T23:37:51.464Z,4.54
2023-05-02T23:40:28.384Z,4.70
2023-05-02T23:42:56.464Z,4.60
2023-05-02T23:45:25.439Z,4.54
2023-05-02T23:47:53.607Z,4.52
2023-05-02T23:50:23.271Z,4.44
2023-05-02T23:52:52.151Z,4.37
2023-05-02T23:55:20.318Z,4.35
2023-05-02T23:57:49.648Z,4.07
